Time;durP1;ratioP1;P1;durP2;ratioP2;P2;SDS_P1;SDS_P2;PMS_P1;PMS_P2;Temp;Humidity;BMP_temperature;BMP_pressure;BME280_temperature;BME280_humidity;BME280_pressure;Samples;Min_cycle;Max_cycle;Signal;HPM_P1;HPM_P2
2021/10/26 00:00:41;;;;;;;0.32;0.32;;;6.50;99.90;;;;;;5054433;28;20550;-76
2021/10/26 00:03:08;;;;;;;0.30;0.30;;;6.50;99.90;;;;;;5053216;28;20036;-76
2021/10/26 00:05:33;;;;;;;0.30;0.30;;;6.50;99.90;;;;;;5054257;28;20033;-76
2021/10/26 00:07:59;;;;;;;0.30;0.30;;;6.70;99.90;;;;;;5054389;28;20674;-76
2021/10/26 00:10:25;;;;;;;0.40;0.40;;;6.80;99.90;;;;;;5053710;28;20443;-76
2021/10/26 00:12:51;;;;;;;0.40;0.40;;;6.60;99.90;;;;;;5054225;28;20047;-76
2021/10/26 00:15:17;;;;;;;0.30;0.30;;;6.40;99.90;;;;;;5054110;28;20107;-76
2021/10/26 00:17:43;;;;;;;0.40;0.40;;;6.20;99.90;;;;;;5052920;28;20480;-76
2021/10/26 00:20:09;;;;;;;0.70;0.70;;;6.10;99.90;;;;;;5053848;28;20029;-76
2021/10/26 00:22:35;;;;;;;0.40;0.40;;;5.90;99.90;;;;;;5036018;28;20485;-76
2021/10/26 00:25:01;;;;;;;0.30;0.30;;;6.00;99.90;;;;;;5053874;28;20028;-76
2021/10/26 00:27:28;;;;;;;0.30;0.30;;;5.90;99.90;;;;;;5054122;28;20476;-76
2021/10/26 00:29:53;;;;;;;0.30;0.30;;;5.90;99.90;;;;;;5053779;28;20100;-76
2021/10/26 00:32:19;;;;;;;0.30;0.30;;;5.80;99.90;;;;;;5052672;28;20100;-76
2021/10/26 00:34:45;;;;;;;0.60;0.47;;;5.90;99.90;;;;;;5053541;28;20082;-76
2021/10/26 00:37:13;;;;;;;0.47;0.47;;;5.80;99.90;;;;;;5053805;28;20108;-76
2021/10/26 00:39:39;;;;;;;0.40;0.40;;;5.70;99.90;;;;;;5053632;28;20515;-76
2021/10/26 00:42:05;;;;;;;0.52;0.52;;;5.50;99.90;;;;;;5035481;28;20048;-76
2021/10/26 00:44:34;;;;;;;0.60;0.60;;;5.30;99.90;;;;;;5053460;28;20104;-76
2021/10/26 00:47:00;;;;;;;0.30;0.30;;;5.20;99.90;;;;;;5053442;28;20091;-76
2021/10/26 00:49:26;;;;;;;0.65;0.50;;;5.20;99.90;;;;;;5052219;28;20116;-76
2021/10/26 00:51:55;;;;;;;0.60;0.60;;;5.30;99.90;;;;;;5052205;28;20583;-76
2021/10/26 00:54:24;;;;;;;1.13;1.02;;;5.20;99.90;;;;;;5053285;28;20404;-76
2021/10/26 00:56:51;;;;;;;0.40;0.40;;;5.20;99.90;;;;;;5053318;28;20430;-76
2021/10/26 00:59:17;;;;;;;0.50;0.50;;;5.20;99.90;;;;;;5053187;28;20431;-76
2021/10/26 01:01:43;;;;;;;0.30;0.30;;;5.30;99.90;;;;;;5053186;28;20017;-76
2021/10/26 01:04:09;;;;;;;0.38;0.38;;;5.40;99.90;;;;;;5051914;28;20017;-76
2021/10/26 01:06:36;;;;;;;0.30;0.30;;;5.60;99.90;;;;;;5053042;28;20548;-76
2021/10/26 01:09:04;;;;;;;0.30;0.30;;;5.50;99.90;;;;;;5053021;28;20405;-76
2021/10/26 01:11:31;;;;;;;0.30;0.30;;;5.50;99.90;;;;;;5053061;28;20481;-76
2021/10/26 01:13:58;;;;;;;0.63;0.63;;;5.50;99.90;;;;;;5051731;28;20024;-76
2021/10/26 01:16:25;;;;;;;9.52;4.78;;;5.40;99.90;;;;;;5052829;28;20553;-76
2021/10/26 01:18:52;;;;;;;0.55;0.55;;;5.30;99.90;;;;;;5051511;28;20056;-76
2021/10/26 01:21:18;;;;;;;0.40;0.40;;;5.30;99.90;;;;;;5051496;28;20029;-76
2021/10/26 01:23:44;;;;;;;0.55;0.55;;;5.30;99.90;;;;;;5051784;28;20087;-76
2021/10/26 01:26:10;;;;;;;0.85;0.70;;;5.20;99.90;;;;;;5052474;28;20024;-76
2021/10/26 01:28:35;;;;;;;0.30;0.30;;;5.20;99.90;;;;;;5051365;28;20024;-76
2021/10/26 01:31:01;;;;;;;0.40;0.40;;;5.30;99.90;;;;;;5051384;28;20079;-76
2021/10/26 01:33:28;;;;;;;0.30;0.30;;;5.30;99.90;;;;;;5052617;28;20029;-76
2021/10/26 01:35:54;;;;;;;0.35;0.35;;;5.30;99.90;;;;;;5052492;28;20476;-76
2021/10/26 01:38:25;;;;;;;34.97;1.13;;;5.30;99.90;;;;;;5051189;28;20025;-76
2021/10/26 01:40:51;;;;;;;0.30;0.30;;;5.30;99.90;;;;;;5051153;28;20104;-76
2021/10/26 01:43:18;;;;;;;0.30;0.30;;;5.20;99.90;;;;;;5051165;28;20025;-76
2021/10/26 01:45:43;;;;;;;1.50;0.98;;;5.20;99.90;;;;;;5052285;28;20025;-76
2021/10/26 01:48:09;;;;;;;0.30;0.30;;;5.40;99.90;;;;;;5052186;28;20082;-76
2021/10/26 01:50:35;;;;;;;0.30;0.30;;;5.40;99.90;;;;;;5051032;28;20032;-76
2021/10/26 01:53:01;;;;;;;0.38;0.38;;;5.40;99.90;;;;;;5052064;28;20473;-76
2021/10/26 01:55:27;;;;;;;0.30;0.30;;;5.50;99.90;;;;;;5052134;28;20120;-76
2021/10/26 01:57:53;;;;;;;0.30;0.30;;;5.60;99.90;;;;;;5034256;28;20035;-76
2021/10/26 02:00:22;;;;;;;0.30;0.30;;;5.60;99.90;;;;;;5052055;28;20419;-76
2021/10/26 02:02:50;;;;;;;0.30;0.30;;;5.70;99.90;;;;;;5050628;28;20443;-76
2021/10/26 02:05:17;;;;;;;0.20;0.20;;;5.70;99.90;;;;;;5051914;28;20017;-76
2021/10/26 02:07:44;;;;;;;0.20;0.20;;;5.70;99.90;;;;;;5052063;28;20017;-76
2021/10/26 02:10:10;;;;;;;0.20;0.20;;;5.80;99.90;;;;;;5052257;28;20025;-76
2021/10/26 02:12:36;;;;;;;0.30;0.30;;;5.90;99.90;;;;;;5052200;28;20096;-76
2021/10/26 02:15:04;;;;;;;0.30;0.30;;;6.00;99.90;;;;;;5051809;28;20449;-74
2021/10/26 02:17:29;;;;;;;0.30;0.30;;;6.00;99.90;;;;;;5050565;28;20115;-74
2021/10/26 02:19:55;;;;;;;0.50;0.50;;;5.90;99.90;;;;;;5051650;28;20439;-74
2021/10/26 02:22:21;;;;;;;0.30;0.30;;;5.80;99.90;;;;;;5051741;28;20083;-74
2021/10/26 02:24:47;;;;;;;0.50;0.50;;;5.70;99.90;;;;;;5033754;28;20044;-74
2021/10/26 02:27:13;;;;;;;0.40;0.40;;;5.70;99.90;;;;;;5051830;28;20025;-74
2021/10/26 02:29:39;;;;;;;0.30;0.30;;;5.70;99.90;;;;;;5051785;28;20070;-74
2021/10/26 02:32:06;;;;;;;0.30;0.30;;;5.70;99.90;;;;;;5051802;28;20440;-74
2021/10/26 02:34:31;;;;;;;0.22;0.22;;;5.60;99.90;;;;;;5051272;28;20021;-74
2021/10/26 02:36:58;;;;;;;0.20;0.20;;;5.70;99.90;;;;;;5050527;28;20033;-74
2021/10/26 02:39:24;;;;;;;0.30;0.30;;;5.80;99.90;;;;;;5051629;28;20491;-74
2021/10/26 02:41:50;;;;;;;0.30;0.30;;;5.70;99.90;;;;;;5051600;28;20029;-74
2021/10/26 02:44:16;;;;;;;0.30;0.30;;;5.70;99.90;;;;;;5051780;28;20021;-74
2021/10/26 02:46:42;;;;;;;0.30;0.30;;;5.70;99.90;;;;;;5051520;28;20024;-74
2021/10/26 02:49:09;;;;;;;0.30;0.30;;;5.90;99.90;;;;;;5033510;28;20504;-74
2021/10/26 02:51:35;;;;;;;0.40;0.40;;;5.90;99.90;;;;;;5050427;28;20498;-74
2021/10/26 02:54:01;;;;;;;0.30;0.30;;;6.00;99.90;;;;;;5051556;28;20092;-74
2021/10/26 02:56:27;;;;;;;0.30;0.30;;;5.90;99.90;;;;;;5051515;28;20028;-74
2021/10/26 02:58:53;;;;;;;0.30;0.30;;;5.80;99.90;;;;;;5050326;28;20500;-74
2021/10/26 03:01:19;;;;;;;0.30;0.30;;;5.90;99.90;;;;;;5051588;28;20017;-74
2021/10/26 03:03:45;;;;;;;0.30;0.30;;;6.00;99.90;;;;;;5051353;28;20087;-74
2021/10/26 03:06:13;;;;;;;0.40;0.40;;;6.00;99.90;;;;;;5051352;28;20095;-74
2021/10/26 03:08:38;;;;;;;0.20;0.20;;;6.10;99.90;;;;;;5051394;28;20380;-74
2021/10/26 03:11:04;;;;;;;0.30;0.30;;;6.20;99.90;;;;;;5050203;28;20029;-74
2021/10/26 03:13:30;;;;;;;0.20;0.20;;;6.30;99.90;;;;;;5051502;28;20021;-73
2021/10/26 03:15:57;;;;;;;0.30;0.30;;;6.10;99.90;;;;;;5033289;28;20079;-74
2021/10/26 03:18:23;;;;;;;0.30;0.30;;;6.10;99.90;;;;;;5033381;28;20029;-74
2021/10/26 03:20:49;;;;;;;0.20;0.20;;;6.30;99.90;;;;;;5050176;28;20523;-74
2021/10/26 03:23:15;;;;;;;0.30;0.30;;;6.40;99.90;;;;;;5033403;28;20021;-74
2021/10/26 03:25:41;;;;;;;0.32;0.32;;;6.40;99.90;;;;;;5051132;28;20021;-74
2021/10/26 03:28:09;;;;;;;0.28;0.28;;;6.20;99.90;;;;;;5051194;28;20033;-74
2021/10/26 03:30:36;;;;;;;0.30;0.30;;;6.20;99.90;;;;;;5051319;28;20048;-74
2021/10/26 03:33:02;;;;;;;0.30;0.30;;;6.20;99.90;;;;;;5051245;28;20036;-74
2021/10/26 03:35:27;;;;;;;0.25;0.25;;;6.10;99.90;;;;;;5049913;28;20029;-74
2021/10/26 03:37:53;;;;;;;0.20;0.20;;;6.10;99.90;;;;;;5050068;28;20492;-74
2021/10/26 03:40:19;;;;;;;0.30;0.30;;;6.20;99.90;;;;;;5051180;28;20523;-74
2021/10/26 03:42:45;;;;;;;0.30;0.30;;;6.30;99.90;;;;;;5050985;28;20033;-74
2021/10/26 03:45:11;;;;;;;0.30;0.30;;;6.20;99.90;;;;;;5049666;28;20044;-74
2021/10/26 03:47:41;;;;;;;0.30;0.30;;;6.20;99.90;;;;;;5063936;23;20017;-72
2021/10/26 03:50:08;;;;;;;0.30;0.30;;;6.20;99.90;;;;;;5014813;28;20489;-72
2021/10/26 03:52:34;;;;;;;0.30;0.30;;;6.20;99.90;;;;;;5014875;28;20022;-72
2021/10/26 03:55:00;;;;;;;0.30;0.30;;;6.10;99.90;;;;;;5014557;28;20028;-73
2021/10/26 03:57:26;;;;;;;0.30;0.30;;;6.10;99.90;;;;;;5013454;28;20112;-73
2021/10/26 03:59:52;;;;;;;0.30;0.30;;;6.20;99.90;;;;;;5014626;28;20040;-72
2021/10/26 04:02:23;;;;;;;0.25;0.25;;;6.20;99.90;;;;;;5014530;28;20048;-73
2021/10/26 04:04:50;;;;;;;0.40;0.40;;;6.20;99.90;;;;;;5014550;28;20489;-73
2021/10/26 04:07:16;;;;;;;0.30;0.30;;;6.30;99.90;;;;;;5014554;28;20097;-73
2021/10/26 04:12:26;;;;;;;0.20;0.20;;;6.20;99.90;;;;;;5014437;28;20037;-72
2021/10/26 04:14:56;;;;;;;0.30;0.30;;;6.20;99.90;;;;;;5012936;28;20405;-73
2021/10/26 04:17:27;;;;;;;0.28;0.28;;;6.00;99.90;;;;;;5014316;28;20132;-73
2021/10/26 04:19:58;;;;;;;0.30;0.30;;;6.10;99.90;;;;;;5014326;28;20029;-73
2021/10/26 04:22:24;;;;;;;0.40;0.40;;;6.20;99.90;;;;;;5012975;28;20539;-73
2021/10/26 04:24:51;;;;;;;0.30;0.30;;;6.10;99.90;;;;;;5012487;28;20026;-73
2021/10/26 04:27:18;;;;;;;0.30;0.30;;;6.00;99.90;;;;;;5013886;28;20032;-73
2021/10/26 04:29:45;;;;;;;0.30;0.30;;;6.10;99.90;;;;;;5013867;28;20113;-73
2021/10/26 04:32:12;;;;;;;0.30;0.30;;;6.00;99.90;;;;;;5012857;28;20104;-73
2021/10/26 04:34:39;;;;;;;0.40;0.40;;;6.00;99.90;;;;;;5012007;28;20057;-73
2021/10/26 04:37:06;;;;;;;0.30;0.30;;;6.00;99.90;;;;;;5016591;28;20033;-73
2021/10/26 04:39:36;;;;;;;0.30;0.30;;;6.10;99.90;;;;;;5018191;28;20091;-73
2021/10/26 04:42:04;;;;;;;0.30;0.30;;;6.30;99.90;;;;;;5033761;28;20408;-73
2021/10/26 04:44:29;;;;;;;0.20;0.20;;;6.40;99.90;;;;;;5020482;28;20028;-73
2021/10/26 04:46:56;;;;;;;0.30;0.30;;;6.20;99.90;;;;;;5014084;28;20405;-73
2021/10/26 04:49:21;;;;;;;0.25;0.25;;;6.30;99.90;;;;;;5012116;28;20038;-73
2021/10/26 04:51:47;;;;;;;0.30;0.30;;;6.30;99.90;;;;;;5013712;28;20026;-73
2021/10/26 04:54:13;;;;;;;0.25;0.25;;;6.40;99.90;;;;;;5013403;28;20428;-73
2021/10/26 04:56:39;;;;;;;0.50;0.50;;;6.30;99.90;;;;;;5013228;28;20030;-73
2021/10/26 04:59:05;;;;;;;1.15;1.05;;;6.20;99.90;;;;;;5013299;28;20516;-73
2021/10/26 05:01:30;;;;;;;0.30;0.30;;;6.30;99.90;;;;;;5013543;28;20029;-73
2021/10/26 05:03:57;;;;;;;0.30;0.30;;;6.30;99.90;;;;;;4995661;28;20033;-73
2021/10/26 05:06:22;;;;;;;0.30;0.30;;;6.30;99.90;;;;;;5013210;28;20057;-73
2021/10/26 05:08:52;;;;;;;0.30;0.30;;;6.30;99.90;;;;;;5012130;28;20084;-73
2021/10/26 05:11:21;;;;;;;0.30;0.30;;;6.40;99.90;;;;;;5013318;28;20018;-73
2021/10/26 05:13:48;;;;;;;0.30;0.30;;;6.40;99.90;;;;;;5012172;28;20485;-73
2021/10/26 05:16:14;;;;;;;0.30;0.30;;;6.50;99.90;;;;;;5013063;28;20109;-72
2021/10/26 05:18:43;;;;;;;0.30;0.30;;;6.40;99.90;;;;;;5013101;28;20096;-73
2021/10/26 05:21:13;;;;;;;0.30;0.30;;;6.50;99.90;;;;;;5013044;28;20053;-73
2021/10/26 05:23:44;;;;;;;0.30;0.30;;;6.50;99.90;;;;;;5011084;28;20533;-73
2021/10/26 05:26:10;;;;;;;0.95;0.95;;;6.60;99.90;;;;;;5010843;28;20458;-72
2021/10/26 05:28:36;;;;;;;0.30;0.30;;;6.70;99.90;;;;;;5011750;28;20014;-72
2021/10/26 05:31:02;;;;;;;0.30;0.30;;;6.60;99.90;;;;;;5012748;28;20026;-73
2021/10/26 05:33:28;;;;;;;0.20;0.20;;;6.50;99.90;;;;;;5013190;28;20045;-73
2021/10/26 05:35:54;;;;;;;0.30;0.30;;;6.40;99.90;;;;;;5012628;28;20034;-73
2021/10/26 05:38:20;;;;;;;0.30;0.30;;;6.40;99.90;;;;;;5011358;28;20026;-73
2021/10/26 05:40:45;;;;;;;0.30;0.30;;;6.50;99.90;;;;;;5002799;28;20085;-73
2021/10/26 05:43:11;;;;;;;0.28;0.28;;;6.70;99.90;;;;;;4992538;28;20473;-73
2021/10/26 05:45:39;;;;;;;0.30;0.30;;;6.70;99.90;;;;;;5003071;28;20029;-73
2021/10/26 05:48:08;;;;;;;0.30;0.30;;;6.80;99.90;;;;;;5011322;28;20076;-73
2021/10/26 05:50:33;;;;;;;0.30;0.30;;;6.80;99.90;;;;;;5012576;28;20050;-74
2021/10/26 05:52:59;;;;;;;0.73;0.73;;;6.60;99.90;;;;;;5011152;28;20497;-73
2021/10/26 05:55:25;;;;;;;0.30;0.30;;;6.50;99.90;;;;;;5011198;28;20389;-73
2021/10/26 05:57:50;;;;;;;0.30;0.30;;;6.60;99.90;;;;;;5010989;28;20437;-73
2021/10/26 06:00:16;;;;;;;0.20;0.20;;;6.50;99.90;;;;;;5012139;28;20026;-73
2021/10/26 06:02:42;;;;;;;0.20;0.20;;;6.50;99.90;;;;;;5012188;28;20030;-73
2021/10/26 06:05:10;;;;;;;0.30;0.30;;;6.50;99.90;;;;;;5010726;28;20054;-73
2021/10/26 06:07:36;;;;;;;0.20;0.20;;;6.50;99.90;;;;;;5012714;28;20104;-72
2021/10/26 06:10:04;;;;;;;0.20;0.20;;;6.50;99.90;;;;;;5010548;28;20061;-73
2021/10/26 06:12:31;;;;;;;0.30;0.30;;;6.40;99.90;;;;;;5012376;28;20053;-73
2021/10/26 06:14:57;;;;;;;0.40;0.40;;;6.40;99.90;;;;;;5012153;28;20025;-73
2021/10/26 06:17:24;;;;;;;0.20;0.20;;;6.50;99.90;;;;;;5012233;28;20034;-72
2021/10/26 06:19:50;;;;;;;0.30;0.30;;;6.60;99.90;;;;;;5010726;28;20030;-72
2021/10/26 06:22:16;;;;;;;0.20;0.20;;;6.60;99.90;;;;;;5011966;28;20428;-72
2021/10/26 06:24:45;;;;;;;0.30;0.30;;;6.60;99.90;;;;;;5011853;28;20030;-72
2021/10/26 06:27:11;;;;;;;0.20;0.20;;;6.50;99.90;;;;;;5011899;28;20021;-73
2021/10/26 06:29:36;;;;;;;0.60;0.60;;;6.60;99.90;;;;;;5011782;28;20038;-73
2021/10/26 06:32:02;;;;;;;0.30;0.30;;;6.40;99.90;;;;;;5011859;28;20029;-72
2021/10/26 06:34:28;;;;;;;0.55;0.52;;;6.10;99.90;;;;;;5010392;28;20026;-72
2021/10/26 06:36:54;;;;;;;0.30;0.30;;;6.00;99.90;;;;;;5012213;28;20470;-72
2021/10/26 06:39:21;;;;;;;0.70;0.70;;;6.10;99.90;;;;;;5011862;28;20048;-72
2021/10/26 06:41:49;;;;;;;1.15;1.05;;;6.30;99.90;;;;;;5011971;28;20429;-72
2021/10/26 06:44:14;;;;;;;0.20;0.20;;;6.40;99.90;;;;;;5011940;28;20053;-73
2021/10/26 06:46:41;;;;;;;0.30;0.30;;;6.40;99.90;;;;;;5011772;28;20014;-73
2021/10/26 06:49:06;;;;;;;1.50;0.65;;;6.50;99.90;;;;;;5010391;28;20025;-73
2021/10/26 06:51:32;;;;;;;0.30;0.30;;;6.60;99.90;;;;;;5010603;28;20076;-73
2021/10/26 06:53:58;;;;;;;0.30;0.30;;;6.80;99.90;;;;;;5010291;28;20029;-73
2021/10/26 06:56:26;;;;;;;0.30;0.30;;;6.90;99.90;;;;;;5011425;28;20032;-72
2021/10/26 06:58:51;;;;;;;0.68;0.68;;;7.00;99.90;;;;;;5011544;28;20073;-72
2021/10/26 07:01:17;;;;;;;0.30;0.30;;;7.20;99.90;;;;;;5011594;28;20390;-72
2021/10/26 07:03:43;;;;;;;0.63;0.63;;;7.30;99.90;;;;;;5011463;28;20041;-72
2021/10/26 07:06:09;;;;;;;0.20;0.20;;;7.20;99.90;;;;;;5011349;28;20030;-73
2021/10/26 07:08:36;;;;;;;0.40;0.40;;;7.30;99.90;;;;;;5011588;28;20490;-72
2021/10/26 07:11:03;;;;;;;0.30;0.30;;;7.30;99.90;;;;;;5010322;28;20113;-73
2021/10/26 07:13:32;;;;;;;6.50;5.97;;;7.40;99.90;;;;;;5011760;28;20068;-73
2021/10/26 07:15:57;;;;;;;0.35;0.35;;;7.50;99.90;;;;;;5010272;28;20033;-73
2021/10/26 07:18:23;;;;;;;0.47;0.47;;;7.70;99.90;;;;;;5011486;28;20109;-72
2021/10/26 07:20:49;;;;;;;0.20;0.20;;;7.70;99.90;;;;;;5012405;28;20022;-73
2021/10/26 07:23:14;;;;;;;0.20;0.20;;;7.80;99.90;;;;;;5013538;28;20053;-73
2021/10/26 07:25:41;;;;;;;0.20;0.20;;;7.90;99.90;;;;;;5014887;28;20084;-73
2021/10/26 07:28:07;;;;;;;0.20;0.20;;;7.90;99.90;;;;;;5013912;28;20390;-73
2021/10/26 07:30:34;;;;;;;0.20;0.20;;;8.10;99.90;;;;;;5015065;28;20034;-73
2021/10/26 07:33:03;;;;;;;0.20;0.20;;;8.20;99.90;;;;;;5013779;28;20552;-73
2021/10/26 07:35:36;;;;;;;0.77;0.77;;;8.30;99.90;;;;;;5015008;28;20030;-73
2021/10/26 07:38:02;;;;;;;0.20;0.20;;;8.30;99.90;;;;;;5015186;28;20088;-73
2021/10/26 07:40:28;;;;;;;0.30;0.30;;;8.40;99.90;;;;;;5014835;28;20024;-72
2021/10/26 07:42:54;;;;;;;0.20;0.20;;;8.60;99.90;;;;;;5014824;28;20125;-73
2021/10/26 07:45:19;;;;;;;0.20;0.20;;;8.60;99.90;;;;;;5014744;28;20316;-72
2021/10/26 07:47:45;;;;;;;0.43;0.43;;;8.50;99.90;;;;;;5014818;28;20436;-72
2021/10/26 07:50:11;;;;;;;0.20;0.20;;;8.30;99.90;;;;;;5014788;28;20021;-72
2021/10/26 07:52:38;;;;;;;0.20;0.20;;;8.40;99.90;;;;;;5014889;28;20053;-72
2021/10/26 07:55:06;;;;;;;0.20;0.20;;;8.50;99.90;;;;;;5014450;28;20032;-72
2021/10/26 07:57:32;;;;;;;0.20;0.20;;;8.70;99.90;;;;;;5014619;28;20084;-72
2021/10/26 07:59:58;;;;;;;0.20;0.20;;;8.90;99.90;;;;;;4997068;28;20073;-73
2021/10/26 08:02:25;;;;;;;0.20;0.20;;;8.90;99.90;;;;;;5014564;28;20393;-73
2021/10/26 08:04:55;;;;;;;0.20;0.20;;;9.00;99.90;;;;;;5014423;28;20018;-73
2021/10/26 08:07:25;;;;;;;0.20;0.20;;;9.00;99.90;;;;;;5014443;28;20049;-73
2021/10/26 08:09:52;;;;;;;0.20;0.20;;;9.10;99.90;;;;;;5014212;28;20505;-73
2021/10/26 08:12:19;;;;;;;0.20;0.20;;;9.30;99.90;;;;;;5013292;28;20033;-73
2021/10/26 08:14:46;;;;;;;0.52;0.52;;;9.40;99.90;;;;;;5014218;28;20037;-74
2021/10/26 08:17:12;;;;;;;0.17;0.17;;;9.40;99.90;;;;;;5012948;28;20489;-74
2021/10/26 08:19:38;;;;;;;0.20;0.20;;;9.50;99.90;;;;;;4996440;28;20033;-74
2021/10/26 08:22:10;;;;;;;0.20;0.20;;;9.50;99.90;;;;;;5014220;28;20477;-74
2021/10/26 08:24:37;;;;;;;;;;;9.50;99.90;;;;;;5013073;28;20033;-74
2021/10/26 08:27:07;;;;;;;0.20;0.20;;;9.70;99.90;;;;;;5014078;28;19913;-74
2021/10/26 08:37:38;;;;;;;0.20;0.20;;;10.10;99.90;;;;;;5013977;28;20370;-74
2021/10/26 08:40:04;;;;;;;0.20;0.20;;;10.20;99.90;;;;;;5013789;28;20030;-74
2021/10/26 08:42:31;;;;;;;0.13;0.13;;;10.30;99.90;;;;;;5013635;28;20058;-74
2021/10/26 08:44:57;;;;;;;0.32;0.32;;;10.30;99.90;;;;;;5013725;28;20029;-74
2021/10/26 08:47:23;;;;;;;0.30;0.30;;;10.40;99.90;;;;;;5013424;28;20516;-74
2021/10/26 08:49:51;;;;;;;0.20;0.20;;;10.60;99.90;;;;;;5013661;28;20548;-74
2021/10/26 08:52:19;;;;;;;0.10;0.10;;;10.60;99.90;;;;;;5013759;28;20030;-74
2021/10/26 08:54:46;;;;;;;0.40;0.40;;;10.70;99.90;;;;;;5013578;28;20482;-74
2021/10/26 08:57:13;;;;;;;1.27;1.17;;;10.90;99.90;;;;;;5012179;28;20492;-74
2021/10/26 08:59:40;;;;;;;0.20;0.20;;;10.90;99.90;;;;;;5013378;28;20335;-74
2021/10/26 09:02:06;;;;;;;0.20;0.20;;;11.00;99.90;;;;;;5012061;28;20033;-74
2021/10/26 09:04:34;;;;;;;0.20;0.20;;;11.20;99.90;;;;;;5013341;28;20022;-74
2021/10/26 09:07:06;;;;;;;0.20;0.20;;;11.20;99.90;;;;;;5013431;28;20362;-74
2021/10/26 09:09:36;;;;;;;0.20;0.20;;;11.20;99.90;;;;;;5013344;28;20025;-74
2021/10/26 09:17:55;;;;;;;0.20;0.20;;;11.00;99.90;;;;;;5013193;28;20385;-74
2021/10/26 09:20:23;;;;;;;0.13;0.13;;;10.90;99.90;;;;;;5013111;28;20030;-74
2021/10/26 09:22:51;;;;;;;0.20;0.20;;;10.90;99.90;;;;;;5013175;28;20033;-74
2021/10/26 09:25:20;;;;;;;0.20;0.20;;;11.20;99.90;;;;;;5011569;28;20022;-74
2021/10/26 09:27:46;;;;;;;0.20;0.20;;;11.60;99.90;;;;;;5013328;28;20022;-74
2021/10/26 09:30:15;;;;;;;0.68;0.25;;;11.70;99.90;;;;;;5012818;28;20026;-74
2021/10/26 09:32:51;;;;;;;0.20;0.20;;;11.50;99.90;;;;;;5011594;28;20033;-74
2021/10/26 09:35:19;;;;;;;0.10;0.10;;;11.50;99.90;;;;;;5011517;28;20030;-74
2021/10/26 09:37:49;;;;;;;0.10;0.10;;;11.70;99.90;;;;;;5012626;28;20041;-74
2021/10/26 09:40:15;;;;;;;0.10;0.10;;;12.40;99.90;;;;;;5012543;28;20030;-74
2021/10/26 09:42:44;;;;;;;0.52;0.52;;;12.70;99.90;;;;;;5012490;28;20104;-74
2021/10/26 09:45:26;;;;;;;7.53;6.80;;;12.50;99.90;;;;;;5010591;28;20030;-74
2021/10/26 09:47:53;;;;;;;0.20;0.20;;;12.10;99.90;;;;;;5012460;28;20044;-74
2021/10/26 09:50:20;;;;;;;0.10;0.10;;;12.20;99.90;;;;;;5011195;28;20028;-74
2021/10/26 09:52:50;;;;;;;1.15;1.05;;;12.20;99.90;;;;;;5012423;28;20038;-74
2021/10/26 09:55:19;;;;;;;0.20;0.20;;;12.00;99.90;;;;;;5012298;28;20036;-74
2021/10/26 09:58:00;;;;;;;1.10;1.00;;;11.90;99.90;;;;;;5012506;28;20541;-74
2021/10/26 10:00:38;;;;;;;3.72;1.48;;;12.00;99.90;;;;;;5010974;28;20061;-74
2021/10/26 10:03:24;;;;;;;0.20;0.20;;;12.20;99.90;;;;;;5012383;28;20053;-74
2021/10/26 10:06:05;;;;;;;18.88;2.03;;;12.10;99.90;;;;;;5012613;28;20025;-74
2021/10/26 10:08:36;;;;;;;0.30;0.30;;;12.20;99.90;;;;;;5011427;28;20485;-74
2021/10/26 10:11:05;;;;;;;0.47;0.47;;;12.30;99.90;;;;;;5012660;28;20071;-74
2021/10/26 10:13:31;;;;;;;0.30;0.30;;;12.40;99.90;;;;;;5010967;28;20022;-74
2021/10/26 10:15:57;;;;;;;0.30;0.30;;;12.30;99.90;;;;;;5012063;28;20225;-74
2021/10/26 10:18:24;;;;;;;0.45;0.45;;;12.40;99.90;;;;;;5012128;28;20025;-74
2021/10/26 10:20:52;;;;;;;1.75;0.98;;;12.40;99.90;;;;;;5011980;28;20029;-74
2021/10/26 10:23:20;;;;;;;0.43;0.43;;;12.40;99.90;;;;;;5011892;28;20070;-74
2021/10/26 10:25:49;;;;;;;0.20;0.20;;;12.40;99.90;;;;;;5010986;28;20486;-74
2021/10/26 10:28:18;;;;;;;0.13;0.13;;;12.40;99.90;;;;;;5012238;28;20022;-74
2021/10/26 10:30:44;;;;;;;0.20;0.20;;;12.50;99.90;;;;;;5013196;28;20097;-74
2021/10/26 10:33:11;;;;;;;4.72;1.65;;;12.80;99.90;;;;;;5012743;28;20022;-74
2021/10/26 10:35:38;;;;;;;1.88;1.38;;;12.60;99.90;;;;;;5010554;28;20398;-74
2021/10/26 10:38:06;;;;;;;0.20;0.20;;;12.70;99.90;;;;;;5011855;28;20470;-75
2021/10/26 10:40:32;;;;;;;0.52;0.52;;;13.50;99.90;;;;;;5010668;28;20034;-75
2021/10/26 10:42:59;;;;;;;0.20;0.20;;;13.50;99.90;;;;;;5011783;28;20025;-74
2021/10/26 10:45:34;;;;;;;0.10;0.10;;;13.70;99.90;;;;;;5010517;28;20030;-74
2021/10/26 10:48:01;;;;;;;0.10;0.10;;;13.80;99.90;;;;;;4994276;28;20054;-74
2021/10/26 10:50:36;;;;;;;0.10;0.10;;;13.70;99.90;;;;;;5011661;28;20029;-75
2021/10/26 10:53:21;;;;;;;0.20;0.20;;;13.70;99.90;;;;;;5010635;28;20030;-74
2021/10/26 10:55:52;;;;;;;0.17;0.17;;;13.30;99.90;;;;;;5012619;28;20033;-75
2021/10/26 10:58:42;;;;;;;0.20;0.20;;;13.10;99.90;;;;;;5015650;28;20025;-74
2021/10/26 11:01:24;;;;;;;0.20;0.20;;;13.10;99.90;;;;;;5015744;28;20030;-74
2021/10/26 11:03:54;;;;;;;0.77;0.77;;;13.10;99.90;;;;;;5015692;28;20026;-74
2021/10/26 11:06:41;;;;;;;4.47;3.10;;;13.10;99.90;;;;;;5014414;28;20061;-74
2021/10/26 11:09:28;;;;;;;0.47;0.47;;;13.00;99.90;;;;;;5015486;28;20354;-74
2021/10/26 11:12:15;;;;;;;0.10;0.10;;;12.80;99.90;;;;;;5014561;28;20524;-74
2021/10/26 11:14:45;;;;;;;0.17;0.17;;;12.70;99.90;;;;;;5013977;28;20036;-75
2021/10/26 11:17:36;;;;;;;0.38;0.38;;;12.60;99.90;;;;;;5015511;28;20118;-74
2021/10/26 11:20:05;;;;;;;1.45;0.63;;;12.60;99.90;;;;;;5015418;28;20033;-74
2021/10/26 11:22:50;;;;;;;0.40;0.40;;;12.60;99.90;;;;;;5015575;28;20038;-74
2021/10/26 11:25:22;;;;;;;0.75;0.75;;;12.40;99.90;;;;;;5015066;28;20022;-75
2021/10/26 11:27:49;;;;;;;0.10;0.10;;;12.50;99.90;;;;;;5015767;28;20101;-74
2021/10/26 11:30:36;;;;;;;0.20;0.20;;;12.50;99.90;;;;;;5015121;28;20082;-75
2021/10/26 11:33:14;;;;;;;0.57;0.35;;;12.60;99.90;;;;;;5013794;28;20030;-75
2021/10/26 11:35:51;;;;;;;0.22;0.22;;;12.40;99.90;;;;;;5014944;28;20504;-74
2021/10/26 11:38:23;;;;;;;0.28;0.28;;;12.40;99.90;;;;;;5013836;28;20033;-75
2021/10/26 11:40:55;;;;;;;0.10;0.10;;;12.40;99.90;;;;;;5015476;28;20037;-74
2021/10/26 11:43:21;;;;;;;0.20;0.20;;;12.60;99.90;;;;;;5015065;28;20076;-75
2021/10/26 11:46:00;;;;;;;0.20;0.20;;;12.60;99.90;;;;;;4997233;28;20088;-74
2021/10/26 11:48:42;;;;;;;2.72;0.95;;;12.60;99.90;;;;;;5014791;28;20401;-74
2021/10/26 11:51:19;;;;;;;1.27;1.17;;;12.70;99.90;;;;;;5013644;28;20025;-74
2021/10/26 11:53:46;;;;;;;0.10;0.10;;;12.50;99.90;;;;;;5014919;28;20133;-74
2021/10/26 11:56:31;;;;;;;0.25;0.25;;;12.50;99.90;;;;;;5013575;28;20026;-74
2021/10/26 11:59:09;;;;;;;0.20;0.20;;;12.50;99.90;;;;;;5013315;28;20030;-74
2021/10/26 12:01:51;;;;;;;0.20;0.20;;;12.50;99.90;;;;;;5014775;28;20026;-73
2021/10/26 12:04:22;;;;;;;0.10;0.10;;;12.50;99.90;;;;;;5014502;28;20477;-73
2021/10/26 12:06:50;;;;;;;0.20;0.20;;;12.60;99.90;;;;;;5012347;28;20508;-72
2021/10/26 12:09:16;;;;;;;7.00;6.47;;;12.70;99.90;;;;;;5013189;28;20029;-72
2021/10/26 12:11:49;;;;;;;0.10;0.10;;;12.50;99.90;;;;;;5013119;28;20029;-73
2021/10/26 12:14:18;;;;;;;0.20;0.20;;;12.50;99.90;;;;;;5014250;28;20524;-73
2021/10/26 12:17:16;;;;;;;0.15;0.15;;;12.60;99.90;;;;;;5014038;28;20371;-73
2021/10/26 12:19:54;;;;;;;0.20;0.20;;;12.70;99.90;;;;;;5014250;28;20532;-73
2021/10/26 12:22:31;;;;;;;0.10;0.10;;;12.60;99.90;;;;;;5014327;28;20390;-72
2021/10/26 12:24:59;;;;;;;0.15;0.15;;;12.70;99.90;;;;;;5014146;28;20022;-73
2021/10/26 12:27:27;;;;;;;0.85;0.85;;;12.70;99.90;;;;;;5014269;28;20520;-73
2021/10/26 12:29:53;;;;;;;0.20;0.20;;;12.60;99.90;;;;;;5012699;28;20018;-73
2021/10/26 12:32:23;;;;;;;0.63;0.63;;;12.40;99.90;;;;;;5014016;28;20097;-72
2021/10/26 12:34:50;;;;;;;0.30;0.30;;;12.50;99.90;;;;;;5013735;28;20100;-73
2021/10/26 12:37:36;;;;;;;0.10;0.10;;;12.40;99.90;;;;;;5012755;28;20381;-73
2021/10/26 12:40:19;;;;;;;1.45;1.35;;;12.40;99.90;;;;;;5013795;28;20030;-72
2021/10/26 12:43:01;;;;;;;0.20;0.20;;;12.40;99.90;;;;;;5012545;28;20073;-72
2021/10/26 12:45:37;;;;;;;0.20;0.20;;;12.50;99.90;;;;;;5013790;28;20210;-72
2021/10/26 12:48:08;;;;;;;0.20;0.20;;;12.50;99.90;;;;;;5013664;28;20109;-73
2021/10/26 12:50:46;;;;;;;1.20;1.20;;;12.50;99.90;;;;;;5013630;28;20026;-73
2021/10/26 12:53:17;;;;;;;2.20;1.85;;;12.50;99.90;;;;;;5012368;28;20026;-73
2021/10/26 12:55:53;;;;;;;0.80;0.77;;;12.50;99.90;;;;;;5012291;28;20034;-73
2021/10/26 12:58:32;;;;;;;0.20;0.20;;;12.40;99.90;;;;;;5013584;28;20512;-72
2021/10/26 13:00:58;;;;;;;1.05;0.95;;;12.40;99.90;;;;;;5013397;28;20033;-73
2021/10/26 13:03:27;;;;;;;2.03;0.85;;;12.40;99.90;;;;;;5013372;28;20481;-72
2021/10/26 13:06:02;;;;;;;1.30;1.10;;;12.30;99.90;;;;;;5013081;28;20033;-72
2021/10/26 13:08:28;;;;;;;0.95;0.73;;;12.20;99.90;;;;;;5013831;28;20026;-72
2021/10/26 13:10:53;;;;;;;0.28;0.28;;;12.20;99.90;;;;;;5013332;28;20492;-73
2021/10/26 13:13:19;;;;;;;0.57;0.57;;;12.20;99.90;;;;;;5013290;28;20037;-74
2021/10/26 13:15:47;;;;;;;0.25;0.25;;;12.20;99.90;;;;;;5013403;28;20516;-73